createdAt,value
2023-02-14T00:19:23.394Z,103461.29
2023-02-14T00:23:21.197Z,103461.81
2023-02-14T00:27:02.086Z,103459.54
2023-02-14T00:31:01.612Z,103456.05
2023-02-14T00:35:11.068Z,103455.67
2023-02-14T00:39:00.827Z,103462.36
2023-02-14T01:09:49.473Z,103471.21
2023-02-14T01:13:58.356Z,103473.47
2023-02-14T01:17:43.806Z,103467.15
2023-02-14T01:21:50.083Z,103468.21
2023-02-14T01:25:58.290Z,103460.98
2023-02-14T01:29:59.941Z,103457.63
2023-02-14T01:33:39.192Z,103452.02
2023-02-14T01:37:47.760Z,103453.95
2023-02-14T01:41:50.169Z,103453.05
2023-02-14T01:45:32.605Z,103452.31
2023-02-14T01:49:43.973Z,103451.95
2023-02-14T01:53:53.059Z,103452.65
2023-02-14T01:57:54.241Z,103449.84
2023-02-14T02:02:02.657Z,103449.13
2023-02-14T02:06:10.914Z,103449.09
2023-02-14T02:10:11.764Z,103447.86
2023-02-14T02:14:08.915Z,103444.52
2023-02-14T02:18:01.173Z,103444.53
2023-02-14T02:22:21.974Z,103439.98
2023-02-14T02:26:33.307Z,103436.27
2023-02-14T02:30:52.282Z,103438.57
2023-02-14T02:34:43.521Z,103440.68
2023-02-14T02:38:30.758Z,103439.07
2023-02-14T02:42:39.635Z,103439.08
2023-02-14T02:47:09.295Z,103441.17
2023-02-14T02:51:09.717Z,103443.84
2023-02-14T02:55:24.953Z,103445.42
2023-02-14T03:49:50.195Z,103465.16
2023-02-14T03:53:58.863Z,103465.27
2023-02-14T03:57:42.089Z,103459.65
2023-02-14T04:01:03.993Z,103458.25
2023-02-14T04:04:14.963Z,103461.77
2023-02-14T04:07:49.701Z,103460.00
2023-02-14T04:11:41.384Z,103461.38
2023-02-14T04:15:33.489Z,103452.25
2023-02-14T04:19:08.658Z,103455.23
2023-02-14T04:22:38.669Z,103452.40
2023-02-14T04:26:46.480Z,103452.56
2023-02-14T04:30:45.216Z,103457.83
2023-02-14T04:34:34.238Z,103450.98
2023-02-14T06:06:07.403Z,103444.84
2023-02-14T06:09:58.588Z,103445.99
2023-02-14T06:13:31.356Z,103454.58
2023-02-14T06:17:11.558Z,103456.52
2023-02-14T06:20:55.983Z,103462.52
2023-02-14T06:25:03.472Z,103469.90
2023-02-14T06:29:12.207Z,103473.54
2023-02-14T06:33:15.240Z,103473.02
2023-02-14T06:37:02.506Z,103472.37
2023-02-14T06:40:31.458Z,103474.20
2023-02-14T06:43:36.762Z,103476.02
2023-02-14T06:47:35.513Z,103478.67
2023-02-14T06:51:44.428Z,103475.16
2023-02-14T06:55:36.764Z,103479.05
2023-02-14T07:43:52.919Z,103484.98
2023-02-14T07:47:33.707Z,103485.29
2023-02-14T07:51:06.084Z,103479.30
2023-02-14T08:02:22.685Z,103487.52
2023-02-14T08:05:37.596Z,103486.68
2023-02-14T08:13:10.237Z,103486.91
2023-02-14T08:17:25.675Z,103493.41
2023-02-14T08:21:14.414Z,103499.98
2023-02-14T08:31:46.944Z,103509.06
2023-02-14T08:35:56.688Z,103514.92
2023-02-14T08:39:35.764Z,103509.68
2023-02-14T09:00:51.276Z,103520.46
2023-02-14T09:04:21.283Z,103524.19
2023-02-14T09:15:26.533Z,103519.67
2023-02-14T09:27:13.931Z,103521.45
2023-02-14T09:30:55.274Z,103524.65
2023-02-14T09:34:07.386Z,103528.17
2023-02-14T09:37:56.515Z,103530.68
2023-02-14T10:25:18.322Z,103528.44
2023-02-14T10:28:16.514Z,103522.09
2023-02-14T10:31:53.022Z,103519.45
2023-02-14T10:35:22.753Z,103521.57
2023-02-14T10:38:56.107Z,103519.31
2023-02-14T10:42:48.321Z,103517.58
2023-02-14T10:47:02.901Z,103516.73
2023-02-14T10:51:04.872Z,103514.27
2023-02-14T10:54:12.305Z,103511.27
2023-02-14T10:58:23.037Z,103517.77
2023-02-14T11:02:31.941Z,103519.55
2023-02-14T11:06:41.645Z,103523.07
2023-02-14T11:09:52.157Z,103521.14
2023-02-14T11:13:49.934Z,103510.98
2023-02-14T11:17:17.899Z,103510.30
2023-02-14T11:21:19.573Z,103508.54
2023-02-14T11:25:19.520Z,103505.02
2023-02-14T11:29:30.148Z,103491.98
2023-02-14T11:32:40.910Z,103489.84
2023-02-14T11:36:36.834Z,103490.88
2023-02-14T11:40:34.388Z,103492.14
2023-02-14T11:44:52.618Z,103483.52
2023-02-14T11:48:39.162Z,103487.25
2023-02-14T11:52:23.357Z,103477.05
2023-02-14T12:03:47.783Z,103462.41
2023-02-14T12:15:52.320Z,103453.45
2023-02-14T12:19:54.051Z,103452.04
2023-02-14T12:23:58.126Z,103447.10
2023-02-14T12:28:00.405Z,103445.34
2023-02-14T12:31:38.001Z,103445.52
2023-02-14T12:35:25.247Z,103438.30
2023-02-14T12:39:33.759Z,103426.84
2023-02-14T12:43:06.902Z,103422.44
2023-02-14T12:46:37.057Z,103419.48
2023-02-14T12:49:50.050Z,103418.77
2023-02-14T12:52:55.716Z,103415.08
2023-02-14T12:57:07.746Z,103417.71
2023-02-14T13:00:55.556Z,103412.59
2023-02-14T13:04:07.983Z,103409.95
2023-02-14T13:07:57.048Z,103406.42
2023-02-14T13:11:44.884Z,103408.01
2023-02-14T13:15:56.449Z,103404.48
2023-02-14T13:19:47.238Z,103404.31
2023-02-14T13:23:42.034Z,103399.55
2023-02-14T13:27:07.493Z,103398.13
2023-02-14T13:30:56.851Z,103400.05
2023-02-14T13:34:18.872Z,103396.00
2023-02-14T13:38:27.246Z,103393.54
2023-02-14T13:41:13.007Z,103389.30
2023-02-14T13:45:30.722Z,103389.66
2023-02-14T13:49:08.310Z,103390.90
2023-02-14T13:52:49.156Z,103389.84
2023-02-14T13:56:11.284Z,103379.63
2023-02-14T14:00:12.435Z,103380.85
2023-02-14T14:03:17.997Z,103385.27
2023-02-14T14:07:29.441Z,103378.04
2023-02-14T14:11:26.828Z,103377.33
2023-02-14T14:15:30.642Z,103379.10
2023-02-14T14:18:48.111Z,103374.52
2023-02-14T14:22:56.478Z,103372.40
2023-02-14T14:26:46.601Z,103367.98
2023-02-14T14:30:20.998Z,103360.39
2023-02-14T14:33:58.766Z,103362.86
2023-02-14T14:37:40.285Z,103362.52
2023-02-14T14:41:07.235Z,103359.16
2023-02-14T14:44:42.548Z,103354.95
2023-02-14T14:48:21.657Z,103356.88
2023-02-14T14:52:19.239Z,103352.83
2023-02-14T14:56:17.474Z,103344.02
2023-02-14T14:59:49.520Z,103342.79
2023-02-14T15:03:43.749Z,103345.78
2023-02-14T15:08:01.220Z,103339.27
2023-02-14T15:12:08.239Z,103331.86
2023-02-14T15:15:52.690Z,103326.75
2023-02-14T15:19:48.227Z,103328.52
2023-02-14T15:23:30.375Z,103324.10
2023-02-14T15:26:56.590Z,103319.70
2023-02-14T15:30:38.065Z,103319.34
2023-02-14T15:34:40.737Z,103313.17
2023-02-14T15:38:48.393Z,103308.94
2023-02-14T15:42:23.561Z,103316.33
2023-02-14T15:51:17.667Z,103313.32
2023-02-14T15:54:54.645Z,103312.79
2023-02-14T15:58:29.533Z,103301.67
2023-02-14T16:01:59.587Z,103303.08
2023-02-14T16:05:59.296Z,103307.80
2023-02-14T16:09:38.438Z,103302.69
2023-02-14T16:13:32.257Z,103298.97
2023-02-14T16:17:38.372Z,103301.58
2023-02-14T16:21:52.971Z,103299.45
2023-02-14T16:29:27.577Z,103293.75
2023-02-14T16:33:25.959Z,103287.21
2023-02-14T16:36:43.965Z,103297.19
2023-02-14T16:40:52.770Z,103299.23
2023-02-14T16:44:54.552Z,103294.98
2023-02-14T16:53:12.668Z,103305.05
2023-02-14T16:57:21.911Z,103302.54
2023-02-14T17:01:30.608Z,103304.26
2023-02-14T17:05:25.162Z,103305.63
2023-02-14T17:09:35.167Z,103302.61
2023-02-14T17:35:19.702Z,103296.02
2023-02-14T17:39:18.260Z,103306.48
2023-02-14T17:43:27.012Z,103306.77
2023-02-14T17:51:04.931Z,103304.27
2023-02-14T17:55:12.206Z,103295.98
2023-02-14T17:59:19.539Z,103294.92
2023-02-14T18:03:31.169Z,103291.06
2023-02-14T18:07:30.625Z,103283.49
2023-02-14T18:11:30.588Z,103286.64
2023-02-14T18:20:12.312Z,103278.89
2023-02-14T18:24:06.848Z,103276.94
2023-02-14T18:28:21.838Z,103278.68
2023-02-14T18:44:31.891Z,103272.10
2023-02-14T18:48:36.806Z,103276.09
2023-02-14T18:52:45.970Z,103271.54
2023-02-14T18:56:34.840Z,103266.97
2023-02-14T19:00:38.603Z,103264.52
2023-02-14T19:04:48.555Z,103261.02
2023-02-14T19:09:21.278Z,103255.55
2023-02-14T19:13:20.791Z,103255.52
2023-02-14T19:17:30.599Z,103253.87
2023-02-14T19:21:48.836Z,103247.30
2023-02-14T19:25:57.898Z,103245.95
2023-02-14T19:29:59.542Z,103240.73
2023-02-14T19:34:08.321Z,103246.03
2023-02-14T19:38:20.814Z,103243.39
2023-02-14T19:46:07.361Z,103230.11
2023-02-14T19:50:16.128Z,103230.92
2023-02-14T19:55:56.857Z,103230.89
2023-02-14T19:58:50.231Z,103228.94
2023-02-14T20:02:51.891Z,103230.98
2023-02-14T20:23:52.714Z,103222.23
2023-02-14T20:28:01.335Z,103229.15
2023-02-14T20:32:10.359Z,103219.53
2023-02-14T20:36:20.424Z,103215.33
2023-02-14T21:00:26.034Z,103191.92
2023-02-14T21:04:35.875Z,103192.42
2023-02-14T21:08:44.832Z,103190.33
2023-02-14T21:12:45.211Z,103188.45
2023-02-14T21:16:47.382Z,103186.40
2023-02-14T21:20:56.646Z,103186.58
2023-02-14T21:25:07.153Z,103182.74
2023-02-14T21:41:05.805Z,103179.10
2023-02-14T21:45:13.810Z,103182.19
2023-02-14T21:49:21.110Z,103178.17
2023-02-14T21:53:31.238Z,103179.09
2023-02-14T22:17:39.811Z,103156.73
2023-02-14T22:21:47.246Z,103153.26
2023-02-14T22:25:56.361Z,103154.92
2023-02-14T22:30:05.309Z,103154.45
2023-02-14T22:34:15.608Z,103151.60
2023-02-14T22:50:18.155Z,103149.66
2023-02-14T22:54:26.664Z,103148.55
2023-02-14T22:58:28.413Z,103140.38
2023-02-14T23:02:33.212Z,103139.52
2023-02-14T23:06:32.357Z,103139.69
2023-02-14T23:10:41.008Z,103136.76
2023-02-14T23:14:48.630Z,103143.95
2023-02-14T23:18:55.449Z,103142.29
2023-02-14T23:39:01.229Z,103121.65
2023-02-14T23:43:10.237Z,103116.75
2023-02-14T23:47:19.178Z,103120.10
2023-02-14T23:51:30.713Z,103124.19
